createdAt,value
2022-08-23T00:00:25.928Z,19.94
2022-08-23T00:01:25.879Z,19.94
2022-08-23T00:02:25.911Z,19.91
2022-08-23T00:03:25.873Z,19.88
2022-08-23T00:04:32.116Z,19.86
2022-08-23T00:05:25.843Z,19.83
2022-08-23T00:06:26.184Z,19.79
2022-08-23T00:07:25.836Z,19.78
2022-08-23T00:08:25.841Z,19.76
2022-08-23T00:09:25.820Z,19.72
2022-08-23T00:10:25.786Z,19.68
2022-08-23T00:11:25.773Z,19.66
2022-08-23T00:12:25.758Z,19.61
2022-08-23T00:13:26.218Z,19.60
2022-08-23T00:14:25.788Z,19.57
2022-08-23T00:15:25.754Z,19.55
2022-08-23T00:16:25.714Z,19.53
2022-08-23T00:17:34.427Z,19.53
2022-08-23T00:18:25.700Z,19.47
2022-08-23T00:19:25.687Z,19.46
2022-08-23T00:20:26.067Z,19.43
2022-08-23T00:21:25.720Z,19.39
2022-08-23T00:22:25.661Z,19.35
2022-08-23T00:23:25.640Z,19.33
2022-08-23T00:24:25.656Z,19.32
2022-08-23T00:25:25.612Z,19.32
2022-08-23T00:26:25.610Z,19.29
2022-08-23T00:27:26.999Z,19.23
2022-08-23T00:28:25.584Z,19.20
2022-08-23T00:29:25.571Z,19.15
2022-08-23T00:30:25.571Z,19.14
2022-08-23T00:31:25.543Z,19.10
2022-08-23T00:32:25.546Z,19.08
2022-08-23T00:33:25.552Z,19.05
2022-08-23T00:34:25.964Z,19.01
2022-08-23T00:35:27.213Z,18.98
2022-08-23T00:36:25.494Z,18.95
2022-08-23T00:37:25.486Z,18.95
2022-08-23T00:38:33.827Z,18.91
2022-08-23T00:39:26.078Z,18.91
2022-08-23T00:40:25.538Z,18.90
2022-08-23T00:41:25.798Z,18.90
2022-08-23T00:42:25.429Z,18.90
2022-08-23T00:43:25.423Z,18.87
2022-08-23T00:44:25.412Z,18.84
2022-08-23T00:45:25.587Z,18.83
2022-08-23T00:46:25.389Z,18.82
2022-08-23T00:47:25.397Z,18.79
2022-08-23T00:48:25.851Z,18.80
2022-08-23T00:49:25.341Z,18.80
2022-08-23T00:50:25.362Z,18.80
2022-08-23T00:51:25.361Z,18.80
2022-08-23T00:52:25.315Z,18.77
2022-08-23T00:53:25.322Z,18.74
2022-08-23T00:54:25.297Z,18.74
2022-08-23T00:55:25.679Z,18.72
2022-08-23T00:56:25.288Z,18.70
2022-08-23T00:57:25.299Z,18.70
2022-08-23T00:58:25.256Z,18.70
2022-08-23T00:59:25.255Z,18.68
2022-08-23T01:00:25.262Z,18.67
2022-08-23T01:01:25.245Z,18.64
2022-08-23T01:02:25.526Z,18.64
2022-08-23T01:03:25.255Z,18.58
2022-08-23T01:04:25.185Z,18.58
2022-08-23T01:05:25.184Z,18.58
2022-08-23T01:06:25.174Z,18.55
2022-08-23T01:07:25.183Z,18.55
2022-08-23T01:08:25.170Z,18.57
2022-08-23T01:09:26.659Z,18.58
2022-08-23T01:10:25.144Z,18.58
2022-08-23T01:11:25.119Z,18.59
2022-08-23T01:12:32.684Z,18.59
2022-08-23T01:13:25.099Z,18.58
2022-08-23T01:14:25.096Z,18.59
2022-08-23T01:15:25.095Z,18.58
2022-08-23T01:16:25.420Z,18.58
2022-08-23T01:17:25.064Z,18.57
2022-08-23T01:18:25.041Z,18.57
2022-08-23T01:19:25.071Z,18.52
2022-08-23T01:20:26.866Z,18.50
2022-08-23T01:21:25.324Z,18.47
2022-08-23T01:22:25.000Z,18.44
2022-08-23T01:23:25.468Z,18.42
2022-08-23T01:24:42.628Z,18.40
2022-08-23T01:25:24.957Z,18.34
2022-08-23T01:26:24.969Z,18.31
2022-08-23T01:27:24.969Z,18.28
2022-08-23T01:28:24.937Z,18.27
2022-08-23T01:29:24.954Z,18.24
2022-08-23T01:30:25.309Z,18.21
2022-08-23T01:31:24.886Z,18.18
2022-08-23T01:32:24.879Z,18.15
2022-08-23T01:33:24.926Z,18.12
2022-08-23T01:34:24.863Z,18.10
2022-08-23T01:36:24.863Z,18.06
2022-08-23T01:37:25.182Z,18.04
2022-08-23T01:38:24.818Z,18.02
2022-08-23T01:39:24.841Z,18.00
2022-08-23T01:40:24.847Z,17.97
2022-08-23T01:41:24.797Z,17.99
2022-08-23T01:42:24.801Z,17.95
2022-08-23T01:43:24.783Z,17.94
2022-08-23T01:44:27.379Z,17.92
2022-08-23T01:45:25.100Z,17.91
2022-08-23T01:46:24.741Z,17.89
2022-08-23T01:47:24.711Z,17.88
2022-08-23T01:48:24.715Z,17.84
2022-08-23T01:49:24.688Z,17.84
2022-08-23T01:50:24.805Z,17.82
2022-08-23T01:51:25.125Z,17.79
2022-08-23T01:52:24.675Z,17.79
2022-08-23T01:53:24.647Z,17.78
2022-08-23T01:54:24.653Z,17.76
2022-08-23T01:55:24.695Z,17.76
2022-08-23T01:56:27.609Z,17.73
2022-08-23T01:57:24.662Z,17.73
2022-08-23T01:58:24.606Z,17.71
2022-08-23T01:59:24.598Z,17.70
2022-08-23T02:00:24.586Z,17.70
2022-08-23T02:01:24.630Z,17.70
2022-08-23T02:02:24.559Z,17.69
2022-08-23T02:03:24.590Z,17.67
2022-08-23T02:04:25.013Z,17.69
2022-08-23T02:05:24.522Z,17.66
2022-08-23T02:06:24.519Z,17.66
2022-08-23T02:07:24.496Z,17.63
2022-08-23T02:08:24.514Z,17.62
2022-08-23T02:09:25.762Z,17.59
2022-08-23T02:10:24.465Z,17.54
2022-08-23T02:11:24.448Z,17.53
2022-08-23T02:12:24.485Z,17.51
2022-08-23T02:13:24.453Z,17.50
2022-08-23T02:14:24.423Z,17.48
2022-08-23T02:15:24.450Z,17.47
2022-08-23T02:16:24.849Z,17.44
2022-08-23T02:17:24.389Z,17.43
2022-08-23T02:18:24.413Z,17.41
2022-08-23T02:19:24.359Z,17.38
2022-08-23T02:20:24.389Z,17.35
2022-08-23T02:21:24.370Z,17.36
2022-08-23T02:22:24.333Z,17.33
2022-08-23T02:23:24.321Z,17.33
2022-08-23T02:24:24.311Z,17.30
2022-08-23T02:25:24.326Z,17.29
2022-08-23T02:26:31.136Z,17.29
2022-08-23T02:27:24.320Z,17.28
2022-08-23T02:28:24.690Z,17.26
2022-08-23T02:29:24.271Z,17.25
2022-08-23T02:30:24.259Z,17.23
2022-08-23T02:31:24.332Z,17.23
2022-08-23T02:32:26.009Z,17.23
2022-08-23T02:33:24.240Z,17.20
2022-08-23T02:34:38.836Z,17.22
2022-08-23T02:35:25.545Z,17.18
2022-08-23T02:36:24.156Z,17.15
2022-08-23T02:37:24.131Z,17.15
2022-08-23T02:38:24.138Z,17.13
2022-08-23T02:39:24.157Z,17.14
2022-08-23T02:40:24.164Z,17.13
2022-08-23T02:41:24.114Z,17.15
2022-08-23T02:42:24.551Z,17.14
2022-08-23T02:43:24.083Z,17.15
2022-08-23T02:44:24.067Z,17.14
2022-08-23T02:45:24.093Z,17.14
2022-08-23T02:46:24.059Z,17.14
2022-08-23T02:47:24.032Z,17.13
2022-08-23T02:48:24.044Z,17.14
2022-08-23T02:49:24.414Z,17.15
2022-08-23T02:50:24.003Z,17.14
2022-08-23T02:51:24.047Z,17.14
2022-08-23T02:52:23.998Z,17.13
2022-08-23T02:53:23.970Z,17.13
2022-08-23T02:54:23.961Z,17.13
2022-08-23T02:55:23.945Z,17.13
2022-08-23T02:56:24.233Z,17.08
2022-08-23T02:57:23.950Z,17.08
2022-08-23T02:58:23.912Z,17.10
2022-08-23T02:59:23.911Z,17.08
2022-08-23T03:00:23.899Z,17.07
2022-08-23T03:01:23.885Z,17.06
2022-08-23T03:02:23.949Z,17.07
2022-08-23T03:03:24.320Z,17.08
2022-08-23T03:04:23.875Z,17.07
2022-08-23T03:05:23.865Z,17.07
2022-08-23T03:06:25.200Z,17.06
2022-08-23T03:07:23.830Z,17.06
2022-08-23T03:08:23.802Z,17.04
2022-08-23T03:09:23.830Z,17.04
2022-08-23T03:10:24.128Z,17.00
2022-08-23T03:11:23.781Z,16.99
2022-08-23T03:12:23.778Z,16.98
2022-08-23T03:13:23.752Z,16.98
2022-08-23T03:14:23.740Z,16.98
2022-08-23T03:15:23.759Z,16.96
2022-08-23T03:16:23.735Z,16.93
2022-08-23T03:17:24.197Z,16.92
2022-08-23T03:18:23.744Z,16.93
2022-08-23T03:19:23.687Z,16.90
2022-08-23T03:20:23.676Z,16.90
2022-08-23T03:21:23.694Z,16.89
2022-08-23T03:22:23.656Z,16.88
2022-08-23T03:23:23.644Z,16.85
2022-08-23T03:24:24.017Z,16.88
2022-08-23T03:25:23.649Z,16.88
2022-08-23T03:26:23.615Z,16.93
2022-08-23T03:27:23.633Z,16.96
2022-08-23T03:28:23.590Z,16.99
2022-08-23T03:29:23.584Z,17.03
2022-08-23T03:30:23.581Z,17.07
2022-08-23T03:31:25.117Z,17.10
2022-08-23T03:32:25.130Z,17.14
2022-08-23T03:33:23.597Z,17.15
2022-08-23T03:34:23.548Z,17.17
2022-08-23T03:35:23.541Z,17.22
2022-08-23T03:36:27.943Z,17.23
2022-08-23T03:37:23.513Z,17.25
2022-08-23T03:38:23.926Z,17.25
2022-08-23T03:39:23.522Z,17.26
2022-08-23T03:40:23.539Z,17.28
2022-08-23T03:41:23.484Z,17.26
2022-08-23T03:42:28.506Z,17.29
2022-08-23T03:43:23.459Z,17.29
2022-08-23T03:44:23.439Z,17.28
2022-08-23T03:45:23.819Z,17.28
2022-08-23T03:46:23.433Z,17.28
2022-08-23T03:47:23.805Z,17.29
2022-08-23T03:48:23.393Z,17.28
2022-08-23T03:49:23.392Z,17.30
2022-08-23T03:50:23.376Z,17.30
2022-08-23T03:51:23.461Z,17.28
2022-08-23T03:52:23.807Z,17.29
2022-08-23T03:53:23.350Z,17.29
2022-08-23T03:54:23.327Z,17.29
2022-08-23T03:55:23.326Z,17.29
2022-08-23T03:56:23.303Z,17.30
2022-08-23T03:57:23.359Z,17.33
2022-08-23T03:58:23.315Z,17.36
2022-08-23T03:59:23.685Z,17.40
2022-08-23T04:00:23.265Z,17.40
2022-08-23T04:01:28.587Z,17.43
2022-08-23T04:02:23.254Z,17.46
2022-08-23T04:03:23.267Z,17.47
2022-08-23T04:04:23.219Z,17.50
2022-08-23T04:05:23.235Z,17.51
2022-08-23T04:06:23.498Z,17.54
2022-08-23T04:07:23.219Z,17.53
2022-08-23T04:08:33.244Z,17.55
2022-08-23T04:09:23.203Z,17.54
2022-08-23T04:10:23.151Z,17.55
2022-08-23T04:11:23.156Z,17.55
2022-08-23T04:12:23.141Z,17.55
2022-08-23T04:13:23.560Z,17.57
2022-08-23T04:14:23.135Z,17.59
2022-08-23T04:15:23.151Z,17.59
2022-08-23T04:16:23.100Z,17.59
2022-08-23T04:17:23.133Z,17.59
2022-08-23T04:18:23.072Z,17.57
2022-08-23T04:19:23.078Z,17.59
2022-08-23T04:20:23.387Z,17.59
2022-08-23T04:21:23.107Z,17.62
2022-08-23T04:22:23.033Z,17.64
2022-08-23T04:23:23.018Z,17.63
2022-08-23T04:24:23.018Z,17.63
2022-08-23T04:25:33.219Z,17.67
2022-08-23T04:26:27.181Z,17.67
2022-08-23T04:27:23.018Z,17.70
2022-08-23T04:28:22.970Z,17.73
2022-08-23T04:29:33.582Z,17.73
2022-08-23T04:30:22.942Z,17.73
2022-08-23T04:31:22.944Z,17.74
2022-08-23T04:32:28.326Z,17.74
2022-08-23T04:33:22.951Z,17.73
2022-08-23T04:34:22.895Z,17.76
2022-08-23T04:35:22.902Z,17.79
2022-08-23T04:36:23.495Z,17.82
2022-08-23T04:37:22.881Z,17.87
2022-08-23T04:38:25.095Z,17.89
2022-08-23T04:39:23.276Z,17.94
2022-08-23T04:40:22.923Z,17.99
2022-08-23T04:41:22.829Z,17.99
2022-08-23T04:42:22.857Z,18.00
2022-08-23T04:43:22.802Z,18.04
2022-08-23T04:44:22.799Z,18.06
2022-08-23T04:45:22.816Z,18.07
2022-08-23T04:46:22.766Z,18.07
2022-08-23T04:47:22.777Z,18.10
2022-08-23T04:48:22.739Z,18.10
2022-08-23T04:49:22.729Z,18.13
2022-08-23T04:50:22.729Z,18.15
2022-08-23T04:51:23.139Z,18.13
2022-08-23T04:52:22.729Z,18.18
2022-08-23T04:53:22.699Z,18.19
2022-08-23T04:54:22.687Z,18.19
2022-08-23T04:55:22.672Z,18.17
2022-08-23T04:56:22.649Z,18.18
2022-08-23T04:57:22.683Z,18.18
2022-08-23T04:58:22.635Z,18.19
2022-08-23T04:59:22.629Z,18.21
2022-08-23T05:00:22.657Z,18.22
2022-08-23T05:01:22.671Z,18.24
2022-08-23T05:02:22.585Z,18.24
2022-08-23T05:03:23.236Z,18.28
2022-08-23T05:04:22.567Z,18.28
2022-08-23T05:05:22.570Z,18.28
2022-08-23T05:06:22.536Z,18.28
2022-08-23T05:07:30.871Z,18.31
2022-08-23T05:08:22.556Z,18.31
2022-08-23T05:09:22.559Z,18.33
2022-08-23T05:10:22.805Z,18.36
2022-08-23T05:11:22.499Z,18.40
2022-08-23T05:12:22.914Z,18.42
2022-08-23T05:13:22.495Z,18.43
2022-08-23T05:14:22.463Z,18.46
2022-08-23T05:15:22.506Z,18.46
2022-08-23T05:16:22.467Z,18.46
2022-08-23T05:17:22.862Z,18.49
2022-08-23T05:18:22.412Z,18.49
2022-08-23T05:19:22.412Z,18.50
2022-08-23T05:20:22.406Z,18.52
2022-08-23T05:21:22.415Z,18.55
2022-08-23T05:22:22.361Z,18.54
2022-08-23T05:23:26.672Z,18.54
2022-08-23T05:24:22.358Z,18.58
2022-08-23T05:25:22.331Z,18.57
2022-08-23T05:26:22.336Z,18.61
2022-08-23T05:27:22.347Z,18.61
2022-08-23T05:28:22.298Z,18.65
2022-08-23T05:29:22.304Z,18.65
2022-08-23T05:30:22.726Z,18.67
2022-08-23T05:31:22.275Z,18.70
2022-08-23T05:32:22.266Z,18.73
2022-08-23T05:33:22.294Z,18.73
2022-08-23T05:34:22.766Z,18.76
2022-08-23T05:35:22.239Z,18.77
2022-08-23T05:36:22.227Z,18.79
2022-08-23T05:37:22.590Z,18.80
2022-08-23T05:38:22.211Z,18.83
2022-08-23T05:39:26.639Z,18.84
2022-08-23T05:40:22.258Z,18.87
2022-08-23T05:41:22.182Z,18.90
2022-08-23T05:42:22.147Z,18.95
2022-08-23T05:43:22.151Z,18.97
2022-08-23T05:44:23.446Z,18.99
2022-08-23T05:45:22.174Z,19.05
2022-08-23T05:46:22.142Z,19.06
2022-08-23T05:47:24.968Z,19.13
2022-08-23T05:48:22.082Z,19.14
2022-08-23T05:49:22.101Z,19.17
2022-08-23T05:50:22.070Z,19.24
2022-08-23T05:51:22.574Z,19.29
2022-08-23T05:52:22.071Z,19.33
2022-08-23T05:53:22.081Z,19.36
2022-08-23T05:54:22.035Z,19.39
2022-08-23T05:55:23.567Z,19.46
2022-08-23T05:56:22.004Z,19.50
2022-08-23T05:57:22.018Z,19.54
2022-08-23T05:58:22.326Z,19.70
2022-08-23T05:59:21.965Z,20.03
2022-08-23T06:00:21.950Z,20.35
2022-08-23T06:01:21.988Z,20.66
2022-08-23T06:02:21.949Z,20.81
2022-08-23T06:03:21.980Z,20.96
2022-08-23T06:04:21.906Z,21.19
2022-08-23T06:05:22.379Z,21.36
2022-08-23T06:06:21.885Z,21.46
2022-08-23T06:07:21.879Z,21.66
2022-08-23T06:08:21.864Z,21.75
2022-08-23T06:09:21.887Z,21.92
2022-08-23T06:10:21.840Z,21.99
2022-08-23T06:11:21.828Z,22.12
2022-08-23T06:12:22.194Z,22.22
2022-08-23T06:13:21.818Z,22.22
2022-08-23T06:14:21.849Z,22.14
2022-08-23T06:15:21.837Z,22.13
2022-08-23T06:16:21.780Z,22.19
2022-08-23T06:17:21.772Z,22.27
2022-08-23T06:18:21.754Z,22.28
2022-08-23T06:19:22.078Z,22.34
2022-08-23T06:20:21.774Z,22.27
2022-08-23T06:21:21.804Z,22.20
2022-08-23T06:22:21.724Z,22.19
2022-08-23T06:23:21.715Z,22.28
2022-08-23T06:24:21.693Z,22.38
2022-08-23T06:25:21.715Z,22.54
2022-08-23T06:26:22.099Z,22.75
2022-08-23T06:27:21.711Z,22.92
2022-08-23T06:28:25.651Z,23.02
2022-08-23T06:29:22.246Z,23.24
2022-08-23T06:30:21.634Z,23.46
2022-08-23T06:31:21.681Z,23.46
2022-08-23T06:32:21.668Z,23.47
2022-08-23T06:33:22.011Z,23.49
2022-08-23T06:34:21.596Z,23.52
2022-08-23T06:35:37.804Z,23.61
2022-08-23T06:36:21.576Z,23.87
2022-08-23T06:37:21.596Z,24.01
2022-08-23T06:38:21.549Z,24.05
2022-08-23T06:39:21.590Z,23.92
2022-08-23T06:40:22.070Z,23.77
2022-08-23T06:41:21.522Z,23.80
2022-08-23T06:42:37.935Z,24.00
2022-08-23T06:43:21.527Z,24.07
2022-08-23T06:44:21.499Z,24.01
2022-08-23T06:45:21.532Z,23.82
2022-08-23T06:46:21.488Z,23.57
2022-08-23T06:47:21.817Z,23.46
2022-08-23T06:48:21.464Z,23.50
2022-08-23T06:49:21.443Z,23.49
2022-08-23T06:50:21.427Z,23.42
2022-08-23T06:51:21.450Z,23.42
2022-08-23T06:52:21.489Z,23.40
2022-08-23T06:53:21.406Z,23.40
2022-08-23T06:54:21.398Z,23.45
2022-08-23T06:55:21.385Z,23.49
2022-08-23T06:56:21.367Z,23.57
2022-08-23T06:57:21.392Z,23.65
2022-08-23T06:58:21.369Z,23.57
2022-08-23T06:59:21.768Z,23.55
2022-08-23T07:00:22.445Z,23.31
2022-08-23T07:01:43.979Z,23.15
2022-08-23T07:02:21.467Z,23.09
2022-08-23T07:03:21.340Z,23.07
2022-08-23T07:04:21.290Z,23.09
2022-08-23T07:05:21.282Z,23.05
2022-08-23T07:06:21.291Z,23.01
2022-08-23T07:07:21.260Z,23.01
2022-08-23T07:08:21.248Z,23.08
2022-08-23T07:09:21.282Z,23.26
2022-08-23T07:10:21.230Z,23.42
2022-08-23T07:11:21.577Z,23.46
2022-08-23T07:12:21.212Z,23.45
2022-08-23T07:13:21.210Z,23.53
2022-08-23T07:14:21.196Z,23.50
2022-08-23T07:15:21.204Z,23.60
2022-08-23T07:16:21.196Z,23.67
2022-08-23T07:17:21.153Z,23.76
2022-08-23T07:18:22.438Z,23.80
2022-08-23T07:19:21.135Z,24.00
2022-08-23T07:20:21.159Z,24.20
2022-08-23T07:21:21.171Z,24.35
2022-08-23T07:22:21.116Z,24.35
2022-08-23T07:23:21.097Z,24.44
2022-08-23T07:24:21.122Z,24.52
2022-08-23T07:25:21.464Z,24.63
2022-08-23T07:26:21.072Z,24.57
2022-08-23T07:27:21.109Z,24.52
2022-08-23T07:28:21.085Z,24.41
2022-08-23T07:29:21.051Z,24.34
2022-08-23T07:30:21.034Z,24.31
2022-08-23T07:31:21.191Z,24.39
2022-08-23T07:32:21.309Z,24.56
2022-08-23T07:33:22.565Z,24.64
2022-08-23T07:34:21.007Z,24.83
2022-08-23T07:35:21.689Z,24.92
2022-08-23T07:36:20.975Z,24.97
2022-08-23T07:37:20.976Z,25.10
2022-08-23T07:38:20.971Z,25.16
2022-08-23T07:39:21.420Z,25.28
2022-08-23T07:40:21.010Z,25.44
2022-08-23T07:41:20.938Z,25.49
2022-08-23T07:42:23.511Z,25.42
2022-08-23T07:43:20.922Z,25.47
2022-08-23T07:44:24.026Z,25.27
2022-08-23T07:45:23.014Z,25.16
2022-08-23T07:46:21.254Z,25.24
2022-08-23T07:47:20.880Z,25.30
2022-08-23T07:48:43.329Z,25.53
2022-08-23T07:49:20.856Z,25.74
2022-08-23T07:50:20.838Z,25.90
2022-08-23T07:51:20.960Z,26.08
2022-08-23T07:52:20.825Z,26.31
2022-08-23T07:53:27.155Z,26.39
2022-08-23T07:54:20.845Z,26.43
2022-08-23T07:55:20.817Z,26.39
2022-08-23T07:56:20.802Z,26.42
2022-08-23T07:57:20.838Z,26.47
2022-08-23T07:58:20.767Z,26.49
2022-08-23T07:59:20.751Z,26.44
2022-08-23T08:00:21.048Z,26.29
2022-08-23T08:01:20.819Z,26.31
2022-08-23T08:02:20.740Z,26.54
2022-08-23T08:03:20.843Z,26.59
2022-08-23T08:04:20.716Z,26.44
2022-08-23T08:05:21.854Z,26.42
2022-08-23T08:06:20.703Z,26.37
2022-08-23T08:07:21.411Z,26.17
2022-08-23T08:08:20.699Z,25.87
2022-08-23T08:09:20.728Z,25.84
2022-08-23T08:10:20.662Z,25.71
2022-08-23T08:11:20.646Z,25.83
2022-08-23T08:12:20.670Z,26.01
2022-08-23T08:13:20.646Z,26.21
2022-08-23T08:14:20.908Z,26.47
2022-08-23T08:15:20.682Z,26.77
2022-08-23T08:16:20.709Z,26.99
2022-08-23T08:17:25.419Z,27.21
2022-08-23T08:18:20.592Z,27.31
2022-08-23T08:19:20.575Z,27.35
2022-08-23T08:20:20.600Z,27.21
2022-08-23T08:21:20.876Z,27.16
2022-08-23T08:22:20.548Z,27.13
2022-08-23T08:23:20.543Z,27.19
2022-08-23T08:24:20.537Z,27.23
2022-08-23T08:25:20.523Z,27.31
2022-08-23T08:26:20.542Z,27.43
2022-08-23T08:27:21.628Z,27.61
2022-08-23T08:28:20.775Z,27.84
2022-08-23T08:29:20.489Z,27.92
2022-08-23T08:30:20.566Z,28.10
2022-08-23T08:31:20.485Z,28.22
2022-08-23T08:32:20.453Z,28.23
2022-08-23T08:33:20.498Z,27.76
2022-08-23T08:34:20.461Z,27.13
2022-08-23T08:35:20.426Z,27.11
2022-08-23T08:36:20.436Z,27.23
2022-08-23T08:37:20.407Z,27.23
2022-08-23T08:38:20.425Z,27.26
2022-08-23T08:39:20.425Z,27.35
2022-08-23T08:40:20.508Z,27.47
2022-08-23T08:41:20.650Z,27.70
2022-08-23T08:42:20.367Z,27.89
2022-08-23T08:43:20.351Z,28.10
2022-08-23T08:44:21.358Z,28.33
2022-08-23T08:45:20.364Z,28.48
2022-08-23T08:46:20.383Z,28.60
2022-08-23T08:47:20.319Z,28.72
2022-08-23T08:48:20.613Z,28.77
2022-08-23T08:49:20.301Z,28.85
2022-08-23T08:50:20.305Z,29.00
2022-08-23T08:51:20.313Z,29.18
2022-08-23T08:52:20.282Z,29.33
2022-08-23T08:53:20.279Z,29.23
2022-08-23T08:54:20.260Z,29.03
2022-08-23T08:55:20.518Z,28.96
2022-08-23T08:56:20.245Z,28.90
2022-08-23T08:57:22.631Z,29.03
2022-08-23T08:58:20.252Z,29.15
2022-08-23T08:59:20.213Z,29.29
2022-08-23T09:00:20.206Z,29.29
2022-08-23T09:01:20.273Z,29.25
2022-08-23T09:02:31.978Z,29.04
2022-08-23T09:03:20.437Z,29.11
2022-08-23T09:04:20.170Z,28.88
2022-08-23T09:05:20.159Z,28.58
2022-08-23T09:06:20.156Z,28.13
2022-08-23T09:07:20.160Z,28.01
2022-08-23T09:08:20.131Z,27.96
2022-08-23T09:09:20.428Z,27.96
2022-08-23T09:10:20.123Z,28.16
2022-08-23T09:11:20.143Z,28.44
2022-08-23T09:12:20.109Z,28.78
2022-08-23T09:13:20.085Z,29.07
2022-08-23T09:14:20.133Z,29.29
2022-08-23T09:15:20.102Z,29.43
2022-08-23T09:16:20.399Z,29.52
2022-08-23T09:17:20.847Z,29.60
2022-08-23T09:18:20.029Z,29.16
2022-08-23T09:19:20.035Z,29.13
2022-08-23T09:20:20.016Z,29.20
2022-08-23T09:21:20.035Z,29.40
2022-08-23T09:22:20.022Z,29.65
2022-08-23T09:23:20.258Z,29.87
2022-08-23T09:24:19.990Z,30.05
2022-08-23T09:25:20.007Z,30.26
2022-08-23T09:26:19.978Z,30.34
2022-08-23T09:27:19.982Z,30.54
2022-08-23T09:28:19.947Z,30.57
2022-08-23T09:29:19.925Z,30.68
2022-08-23T09:30:20.195Z,30.74
2022-08-23T09:31:19.991Z,30.47
2022-08-23T09:32:19.913Z,30.49
2022-08-23T09:33:19.928Z,30.65
2022-08-23T09:34:19.891Z,30.75
2022-08-23T09:35:19.875Z,30.78
2022-08-23T09:36:19.891Z,30.76
2022-08-23T09:37:20.138Z,30.68
2022-08-23T09:38:19.855Z,30.74
2022-08-23T09:39:19.881Z,30.72
2022-08-23T09:40:19.883Z,30.80
2022-08-23T09:41:19.829Z,30.80
2022-08-23T09:42:19.817Z,30.91
2022-08-23T09:43:19.800Z,31.02
2022-08-23T09:44:20.077Z,31.11
2022-08-23T09:45:19.822Z,31.11
2022-08-23T09:46:19.815Z,31.26
2022-08-23T09:47:19.762Z,31.26
2022-08-23T09:48:19.758Z,31.15
2022-08-23T09:49:19.746Z,31.04
2022-08-23T09:50:19.740Z,31.06
2022-08-23T09:51:19.760Z,31.26
2022-08-23T09:52:22.369Z,31.40
2022-08-23T09:53:19.707Z,31.49
2022-08-23T09:54:19.699Z,31.46
2022-08-23T09:55:19.691Z,31.33
2022-08-23T09:56:19.691Z,31.18
2022-08-23T09:57:19.978Z,31.31
2022-08-23T09:58:19.658Z,31.39
2022-08-23T09:59:19.666Z,31.42
2022-08-23T10:00:19.670Z,31.45
2022-08-23T10:01:19.698Z,31.57
2022-08-23T10:02:19.621Z,31.67
2022-08-23T10:03:19.635Z,31.60
2022-08-23T10:04:19.643Z,31.27
2022-08-23T10:05:19.606Z,30.91
2022-08-23T10:06:19.625Z,30.87
2022-08-23T10:07:19.573Z,30.76
2022-08-23T10:08:19.570Z,30.83
2022-08-23T10:09:19.874Z,31.04
2022-08-23T10:10:19.543Z,30.89
2022-08-23T10:11:19.531Z,30.74
2022-08-23T10:12:19.538Z,30.53
2022-08-23T10:13:20.739Z,30.64
2022-08-23T10:14:19.516Z,30.91
2022-08-23T10:15:19.520Z,31.27
2022-08-23T10:16:19.582Z,31.60
2022-08-23T10:17:19.472Z,31.64
2022-08-23T10:18:19.483Z,31.76
2022-08-23T10:19:19.476Z,32.02
2022-08-23T10:20:19.455Z,32.21
2022-08-23T10:21:23.809Z,32.36
2022-08-23T10:22:19.462Z,32.47
2022-08-23T10:23:19.415Z,32.55
2022-08-23T10:24:19.423Z,32.47
2022-08-23T10:25:19.412Z,32.40
2022-08-23T10:26:19.395Z,32.32
2022-08-23T10:27:19.416Z,32.03
2022-08-23T10:28:19.643Z,31.93
2022-08-23T10:29:19.399Z,31.93
2022-08-23T10:30:19.362Z,31.95
2022-08-23T10:31:19.386Z,31.92
2022-08-23T10:32:19.364Z,32.10
2022-08-23T10:33:19.358Z,32.24
2022-08-23T10:34:19.324Z,32.32
2022-08-23T10:35:19.585Z,32.42
2022-08-23T10:36:19.316Z,32.20
2022-08-23T10:37:19.281Z,32.36
2022-08-23T10:38:19.276Z,32.59
2022-08-23T10:39:19.310Z,32.79
2022-08-23T10:40:19.352Z,32.70
2022-08-23T10:41:19.252Z,32.58
2022-08-23T10:42:19.536Z,32.43
2022-08-23T10:43:19.230Z,32.58
2022-08-23T10:44:19.231Z,32.79
2022-08-23T10:45:19.266Z,32.58
2022-08-23T10:46:19.262Z,32.55
2022-08-23T10:47:19.193Z,32.64
2022-08-23T10:48:21.405Z,32.58
2022-08-23T10:49:19.464Z,32.64
2022-08-23T10:50:19.167Z,32.62
2022-08-23T10:51:23.157Z,32.74
2022-08-23T10:52:19.163Z,32.85
2022-08-23T10:53:19.154Z,32.80
2022-08-23T10:54:19.132Z,32.62
2022-08-23T10:55:19.134Z,32.51
2022-08-23T10:56:19.399Z,32.37
2022-08-23T10:57:19.133Z,32.20
2022-08-23T10:58:19.123Z,32.27
2022-08-23T10:59:19.078Z,32.27
2022-08-23T11:00:19.083Z,32.13
2022-08-23T11:01:19.131Z,31.85
2022-08-23T11:02:19.109Z,31.62
2022-08-23T11:03:19.363Z,31.64
2022-08-23T11:04:19.152Z,31.92
2022-08-23T11:05:19.067Z,32.14
2022-08-23T11:06:19.042Z,32.15
2022-08-23T11:07:19.005Z,32.07
2022-08-23T11:08:19.030Z,31.67
2022-08-23T11:09:19.023Z,31.46
2022-08-23T11:10:19.282Z,31.67
2022-08-23T11:11:18.975Z,31.98
2022-08-23T11:12:18.998Z,32.27
2022-08-23T11:13:18.962Z,32.47
2022-08-23T11:14:18.949Z,32.51
2022-08-23T11:15:18.987Z,32.33
2022-08-23T11:16:18.936Z,32.22
2022-08-23T11:17:19.190Z,32.22
2022-08-23T11:18:18.912Z,32.25
2022-08-23T11:19:18.904Z,32.48
2022-08-23T11:20:18.884Z,32.55
2022-08-23T11:21:19.228Z,32.25
2022-08-23T11:22:18.865Z,31.82
2022-08-23T11:23:18.857Z,31.73
2022-08-23T11:24:19.133Z,31.82
2022-08-23T11:25:18.834Z,31.96
2022-08-23T11:26:18.874Z,31.73
2022-08-23T11:27:18.887Z,31.73
2022-08-23T11:28:18.828Z,32.00
2022-08-23T11:29:18.812Z,32.27
2022-08-23T11:30:18.800Z,32.49
2022-08-23T11:31:19.103Z,32.51
2022-08-23T11:32:18.784Z,32.79
2022-08-23T11:33:18.801Z,32.54
2022-08-23T11:34:18.752Z,32.35
2022-08-23T11:35:19.166Z,32.11
2022-08-23T11:36:18.745Z,31.93
2022-08-23T11:37:18.774Z,32.24
2022-08-23T11:38:22.603Z,32.51
2022-08-23T11:39:21.638Z,33.01
2022-08-23T11:40:18.845Z,33.19
2022-08-23T11:41:18.683Z,33.57
2022-08-23T11:42:18.712Z,33.92
2022-08-23T11:43:18.661Z,34.17
2022-08-23T11:44:18.663Z,34.45
2022-08-23T11:45:18.992Z,34.34
2022-08-23T11:46:18.658Z,34.20
2022-08-23T11:47:18.619Z,34.16
2022-08-23T11:48:18.632Z,34.46
2022-08-23T11:49:18.619Z,34.64
2022-08-23T11:50:18.595Z,34.57
2022-08-23T11:51:18.709Z,34.74
2022-08-23T11:52:18.970Z,34.42
2022-08-23T11:53:18.561Z,33.60
2022-08-23T11:54:18.571Z,33.52
2022-08-23T11:55:18.561Z,33.61
2022-08-23T11:56:18.545Z,33.78
2022-08-23T11:57:18.594Z,34.09
2022-08-23T11:58:18.516Z,34.50
2022-08-23T11:59:18.822Z,34.46
2022-08-23T12:00:19.188Z,34.39
2022-08-23T12:01:18.537Z,34.11
2022-08-23T12:02:19.555Z,33.80
2022-08-23T12:03:18.712Z,33.45
2022-08-23T12:04:18.462Z,32.85
2022-08-23T12:05:18.476Z,32.06
2022-08-23T12:06:18.861Z,31.79
2022-08-23T12:07:18.456Z,31.75
2022-08-23T12:08:18.463Z,32.25
2022-08-23T12:09:18.462Z,32.74
2022-08-23T12:10:18.399Z,33.29
2022-08-23T12:11:18.384Z,33.67
2022-08-23T12:12:18.382Z,34.09
2022-08-23T12:13:18.709Z,34.36
2022-08-23T12:14:18.372Z,34.72
2022-08-23T12:15:18.407Z,34.95
2022-08-23T12:16:18.382Z,35.25
2022-08-23T12:17:19.288Z,35.10
2022-08-23T12:18:25.041Z,34.83
2022-08-23T12:19:18.324Z,34.74
2022-08-23T12:20:18.753Z,34.44
2022-08-23T12:21:18.354Z,33.55
2022-08-23T12:22:18.299Z,32.81
2022-08-23T12:23:18.293Z,32.21
2022-08-23T12:24:18.296Z,31.82
2022-08-23T12:25:18.276Z,31.64
2022-08-23T12:26:18.244Z,31.65
2022-08-23T12:27:19.062Z,31.77
2022-08-23T12:28:18.243Z,31.79
2022-08-23T12:29:18.230Z,31.93
2022-08-23T12:30:18.212Z,32.32
2022-08-23T12:31:18.931Z,32.96
2022-08-23T12:32:18.189Z,33.67
2022-08-23T12:33:18.228Z,34.27
2022-08-23T12:34:18.647Z,34.38
2022-08-23T12:35:18.160Z,34.31
2022-08-23T12:36:18.151Z,34.19
2022-08-23T12:37:18.163Z,34.26
2022-08-23T12:38:18.123Z,34.58
2022-08-23T12:39:18.174Z,34.96
2022-08-23T12:40:18.212Z,35.33
2022-08-23T12:41:18.493Z,35.66
2022-08-23T12:42:18.092Z,35.67
2022-08-23T12:43:22.231Z,35.74
2022-08-23T12:44:18.090Z,35.67
2022-08-23T12:45:18.112Z,35.52
2022-08-23T12:46:18.102Z,35.63
2022-08-23T12:47:18.070Z,35.50
2022-08-23T12:48:18.077Z,35.39
2022-08-23T12:49:18.044Z,35.47
2022-08-23T12:50:18.020Z,35.52
2022-08-23T12:51:18.081Z,35.39
2022-08-23T12:52:18.013Z,35.39
2022-08-23T12:53:18.029Z,34.92